sensor_id;sensor_type;location;lat;lon;timestamp;pressure;altitude;pressure_sealevel;temperature;humidity
50672;BME280;46021;55.882;37.654;2023-09-19T00:00:20;100080.75;;;6.98;85.41
50672;BME280;46021;55.882;37.654;2023-09-19T00:02:52;100083.31;;;7.01;84.98
50672;BME280;46021;55.882;37.654;2023-09-19T00:05:19;100080.72;;;7.01;85.29
50672;BME280;46021;55.882;37.654;2023-09-19T00:07:50;100076.38;;;7.02;85.29
50672;BME280;46021;55.882;37.654;2023-09-19T00:10:20;100078.03;;;7.09;85.09
50672;BME280;46021;55.882;37.654;2023-09-19T00:12:52;100073.69;;;7.13;84.72
50672;BME280;46021;55.882;37.654;2023-09-19T00:15:21;100082.22;;;7.21;84.94
50672;BME280;46021;55.882;37.654;2023-09-19T00:17:48;100089.09;;;7.25;85.08
50672;BME280;46021;55.882;37.654;2023-09-19T00:20:18;100085.56;;;7.29;84.64
50672;BME280;46021;55.882;37.654;2023-09-19T00:22:47;100078.63;;;7.31;84.36
50672;BME280;46021;55.882;37.654;2023-09-19T00:25:14;100079.53;;;7.29;84.11
50672;BME280;46021;55.882;37.654;2023-09-19T00:27:41;100082.16;;;7.27;83.74
50672;BME280;46021;55.882;37.654;2023-09-19T00:30:12;100076.09;;;7.27;84.07
50672;BME280;46021;55.882;37.654;2023-09-19T00:32:46;100081.28;;;7.27;84.40
50672;BME280;46021;55.882;37.654;2023-09-19T00:35:15;100079.53;;;7.29;84.11
50672;BME280;46021;55.882;37.654;2023-09-19T00:37:42;100083.81;;;7.31;84.29
50672;BME280;46021;55.882;37.654;2023-09-19T00:40:10;100076.88;;;7.33;84.28
50672;BME280;46021;55.882;37.654;2023-09-19T00:42:38;100074.25;;;7.36;83.32
50672;BME280;46021;55.882;37.654;2023-09-19T00:45:07;100079.44;;;7.38;83.58
50672;BME280;46021;55.882;37.654;2023-09-19T00:47:38;100076.84;;;7.36;83.65
50672;BME280;46021;55.882;37.654;2023-09-19T00:50:08;100075.16;;;7.35;83.50
50672;BME280;46021;55.882;37.654;2023-09-19T00:52:37;100077.78;;;7.32;83.37
50672;BME280;46021;55.882;37.654;2023-09-19T00:55:06;100076.94;;;7.30;83.08
50672;BME280;46021;55.882;37.654;2023-09-19T00:57:34;100081.28;;;7.28;83.10
50672;BME280;46021;55.882;37.654;2023-09-19T01:00:03;100081.28;;;7.30;83.29
50672;BME280;46021;55.882;37.654;2023-09-19T01:02:33;100082.16;;;7.27;83.05
50672;BME280;46021;55.882;37.654;2023-09-19T01:05:01;100080.38;;;7.32;83.03
50672;BME280;46021;55.882;37.654;2023-09-19T01:07:32;100075.16;;;7.35;83.55
50672;BME280;46021;55.882;37.654;2023-09-19T01:10:00;100076.88;;;7.33;83.30
50672;BME280;46021;55.882;37.654;2023-09-19T01:12:37;100082.88;;;7.37;82.99
50672;BME280;46021;55.882;37.654;2023-09-19T01:15:12;100077.69;;;7.37;82.92
50672;BME280;46021;55.882;37.654;2023-09-19T01:17:48;100077.75;;;7.35;82.64
50672;BME280;46021;55.882;37.654;2023-09-19T01:20:27;100075.19;;;7.32;82.91
50672;BME280;46021;55.882;37.654;2023-09-19T01:23:10;100069.16;;;7.30;83.08
50672;BME280;46021;55.882;37.654;2023-09-19T01:26:07;100082.97;;;7.31;83.02
50672;BME280;46021;55.882;37.654;2023-09-19T01:28:52;100067.47;;;7.26;83.15
50672;BME280;46021;55.882;37.654;2023-09-19T01:31:23;100072.69;;;7.25;83.22
50672;BME280;46021;55.882;37.654;2023-09-19T01:33:58;100072.59;;;7.29;82.89
50672;BME280;46021;55.882;37.654;2023-09-19T01:36:27;100063.06;;;7.31;83.28
50672;BME280;46021;55.882;37.654;2023-09-19T01:38:57;100063.13;;;7.28;83.17
50672;BME280;46021;55.882;37.654;2023-09-19T01:42:03;100066.50;;;7.33;83.28
50672;BME280;46021;55.882;37.654;2023-09-19T01:44:41;100065.66;;;7.33;82.99
50672;BME280;46021;55.882;37.654;2023-09-19T01:47:18;100064.78;;;7.35;82.84
50672;BME280;46021;55.882;37.654;2023-09-19T01:49:55;100055.25;;;7.36;82.76
50672;BME280;46021;55.882;37.654;2023-09-19T01:52:26;100057.84;;;7.37;82.92
50672;BME280;46021;55.882;37.654;2023-09-19T01:54:58;100056.06;;;7.39;82.82
50672;BME280;46021;55.882;37.654;2023-09-19T01:57:35;100049.13;;;7.41;83.21
50672;BME280;46021;55.882;37.654;2023-09-19T02:00:07;100050.81;;;7.42;82.88
50672;BME280;46021;55.882;37.654;2023-09-19T02:02:44;100049.97;;;7.42;83.00
50672;BME280;46021;55.882;37.654;2023-09-19T02:05:13;100052.56;;;7.44;82.61
50672;BME280;46021;55.882;37.654;2023-09-19T02:07:40;100048.22;;;7.42;82.93
50672;BME280;46021;55.882;37.654;2023-09-19T02:10:08;100040.50;;;7.39;82.69
50672;BME280;46021;55.882;37.654;2023-09-19T02:12:36;100035.31;;;7.39;82.88
50672;BME280;46021;55.882;37.654;2023-09-19T02:15:09;100028.44;;;7.37;82.88
50672;BME280;46021;55.882;37.654;2023-09-19T02:17:48;100031.91;;;7.37;82.88
50672;BME280;46021;55.882;37.654;2023-09-19T02:20:15;100032.78;;;7.35;82.70
50672;BME280;46021;55.882;37.654;2023-09-19T02:22:43;100032.00;;;7.28;83.06
50672;BME280;46021;55.882;37.654;2023-09-19T02:25:30;100037.31;;;7.19;83.28
50672;BME280;46021;55.882;37.654;2023-09-19T02:27:58;100028.69;;;7.17;83.51
50672;BME280;46021;55.882;37.654;2023-09-19T02:30:27;100024.38;;;7.14;83.26
50672;BME280;46021;55.882;37.654;2023-09-19T02:32:57;100024.47;;;7.08;83.34
50672;BME280;46021;55.882;37.654;2023-09-19T02:35:27;100034.84;;;7.07;83.58
50672;BME280;46021;55.882;37.654;2023-09-19T02:37:58;100028.81;;;7.08;83.31
50672;BME280;46021;55.882;37.654;2023-09-19T02:40:25;100025.41;;;7.02;83.79
50672;BME280;46021;55.882;37.654;2023-09-19T02:42:54;100028.00;;;7.02;84.04
50672;BME280;46021;55.882;37.654;2023-09-19T02:45:24;100025.41;;;7.01;83.29
50672;BME280;46021;55.882;37.654;2023-09-19T02:47:51;100016.88;;;6.94;84.15
50672;BME280;46021;55.882;37.654;2023-09-19T02:50:19;100026.31;;;6.97;83.65
50672;BME280;46021;55.882;37.654;2023-09-19T02:52:47;100028.09;;;6.92;83.82
50672;BME280;46021;55.882;37.654;2023-09-19T02:55:15;100023.81;;;6.91;84.59
50672;BME280;46021;55.882;37.654;2023-09-19T02:57:45;100030.75;;;6.87;83.95
50672;BME280;46021;55.882;37.654;2023-09-19T03:00:13;100029.09;;;6.83;83.89
50672;BME280;46021;55.882;37.654;2023-09-19T03:02:41;100033.44;;;6.78;84.47
50672;BME280;46021;55.882;37.654;2023-09-19T03:05:09;100037.78;;;6.79;84.98
50672;BME280;46021;55.882;37.654;2023-09-19T03:07:39;100037.69;;;6.85;84.21
50672;BME280;46021;55.882;37.654;2023-09-19T03:10:09;100041.94;;;6.94;84.11
50672;BME280;46021;55.882;37.654;2023-09-19T03:12:36;100034.13;;;6.95;84.63
50672;BME280;46021;55.882;37.654;2023-09-19T03:15:05;100041.03;;;6.96;84.31
50672;BME280;46021;55.882;37.654;2023-09-19T03:17:34;100034.09;;;6.98;84.38
50672;BME280;46021;55.882;37.654;2023-09-19T03:20:02;100040.94;;;7.06;84.30
50672;BME280;46021;55.882;37.654;2023-09-19T03:22:30;100035.69;;;7.09;84.27
50672;BME280;46021;55.882;37.654;2023-09-19T03:24:59;100043.44;;;7.13;84.39
50672;BME280;46021;55.882;37.654;2023-09-19T03:27:27;100041.66;;;7.15;84.32
50672;BME280;46021;55.882;37.654;2023-09-19T03:29:54;100039.06;;;7.17;83.74
50672;BME280;46021;55.882;37.654;2023-09-19T03:32:22;100036.50;;;7.15;84.08
50672;BME280;46021;55.882;37.654;2023-09-19T03:34:49;100039.91;;;7.17;84.08
50672;BME280;46021;55.882;37.654;2023-09-19T03:37:16;100034.63;;;7.25;84.13
50672;BME280;46021;55.882;37.654;2023-09-19T03:39:43;100035.38;;;7.33;83.40
50672;BME280;46021;55.882;37.654;2023-09-19T03:42:12;100038.81;;;7.37;83.55
50672;BME280;46021;55.882;37.654;2023-09-19T03:44:40;100033.66;;;7.35;83.07
50672;BME280;46021;55.882;37.654;2023-09-19T03:47:07;100033.56;;;7.41;83.29
50672;BME280;46021;55.882;37.654;2023-09-19T03:49:34;100031.78;;;7.47;83.37
50672;BME280;46021;55.882;37.654;2023-09-19T03:52:02;100025.59;;;7.54;83.11
50672;BME280;46021;55.882;37.654;2023-09-19T03:54:29;100018.59;;;7.60;83.20
50672;BME280;46021;55.882;37.654;2023-09-19T03:56:56;100018.59;;;7.62;83.24
50672;BME280;46021;55.882;37.654;2023-09-19T03:59:25;100026.28;;;7.68;83.09
50672;BME280;46021;55.882;37.654;2023-09-19T04:01:52;100020.16;;;7.71;83.04
50672;BME280;46021;55.882;37.654;2023-09-19T04:04:22;100012.38;;;7.72;83.06
50672;BME280;46021;55.882;37.654;2023-09-19T04:06:50;100003.72;;;7.73;82.74
50672;BME280;46021;55.882;37.654;2023-09-19T04:09:18;100008.81;;;7.79;82.66
50672;BME280;46021;55.882;37.654;2023-09-19T04:11:45;100013.88;;;7.87;82.39
50672;BME280;46021;55.882;37.654;2023-09-19T04:14:12;100010.34;;;7.93;82.88
50672;BME280;46021;55.882;37.654;2023-09-19T04:16:41;100005.19;;;7.90;82.31
50672;BME280;46021;55.882;37.654;2023-09-19T04:19:08;100011.06;;;7.99;82.11
50672;BME280;46021;55.882;37.654;2023-09-19T04:21:35;100004.97;;;8.04;82.02
50672;BME280;46021;55.882;37.654;2023-09-19T04:24:03;100004.06;;;8.06;81.95
50672;BME280;46021;55.882;37.654;2023-09-19T04:26:31;100009.97;;;8.14;81.29
50672;BME280;46021;55.882;37.654;2023-09-19T04:28:58;100003.75;;;8.25;81.67
50672;BME280;46021;55.882;37.654;2023-09-19T04:31:26;99994.09;;;8.33;81.40
50672;BME280;46021;55.882;37.654;2023-09-19T04:33:55;99995.81;;;8.34;81.21
50672;BME280;46021;55.882;37.654;2023-09-19T04:36:22;100003.50;;;8.40;80.62
50672;BME280;46021;55.882;37.654;2023-09-19T04:38:49;100001.72;;;8.45;81.12
50672;BME280;46021;55.882;37.654;2023-09-19T04:41:17;100000.88;;;8.43;81.21
50672;BME280;46021;55.882;37.654;2023-09-19T04:43:44;99996.53;;;8.40;81.03
50672;BME280;46021;55.882;37.654;2023-09-19T04:46:11;100000.88;;;8.40;80.91
50672;BME280;46021;55.882;37.654;2023-09-19T04:48:39;99990.66;;;8.31;80.77
50672;BME280;46021;55.882;37.654;2023-09-19T04:51:08;99995.69;;;8.40;80.55
50672;BME280;46021;55.882;37.654;2023-09-19T04:53:36;99998.22;;;8.46;81.09
50672;BME280;46021;55.882;37.654;2023-09-19T04:56:03;99989.59;;;8.43;80.81
50672;BME280;46021;55.882;37.654;2023-09-19T04:58:32;99992.88;;;8.52;80.72
50672;BME280;46021;55.882;37.654;2023-09-19T05:00:59;99988.41;;;8.62;80.74
50672;BME280;46021;55.882;37.654;2023-09-19T05:03:30;99985.56;;;8.73;81.07
50672;BME280;46021;55.882;37.654;2023-09-19T05:05:57;99993.19;;;8.84;80.71
50672;BME280;46021;55.882;37.654;2023-09-19T05:08:25;99987.84;;;8.90;80.97
50672;BME280;46021;55.882;37.654;2023-09-19T05:10:53;99991.94;;;9.02;81.09
50672;BME280;46021;55.882;37.654;2023-09-19T05:13:21;99987.38;;;9.13;80.09
50672;BME280;46021;55.882;37.654;2023-09-19T05:15:48;99989.75;;;9.24;80.45
50672;BME280;46021;55.882;37.654;2023-09-19T05:18:16;99990.50;;;9.30;80.13
50672;BME280;46021;55.882;37.654;2023-09-19T05:20:43;99985.16;;;9.36;79.96
50672;BME280;46021;55.882;37.654;2023-09-19T05:23:10;99987.06;;;9.28;79.26
50672;BME280;46021;55.882;37.654;2023-09-19T05:25:40;99982.84;;;9.23;79.35
50672;BME280;46021;55.882;37.654;2023-09-19T05:28:09;99983.69;;;9.23;79.60
50672;BME280;46021;55.882;37.654;2023-09-19T05:30:40;99981.09;;;9.23;79.36
50672;BME280;46021;55.882;37.654;2023-09-19T05:33:09;99981.06;;;9.25;79.39
50672;BME280;46021;55.882;37.654;2023-09-19T05:35:36;99980.13;;;9.27;79.82
50672;BME280;46021;55.882;37.654;2023-09-19T05:38:07;99970.53;;;9.31;79.58
50672;BME280;46021;55.882;37.654;2023-09-19T05:40:37;99981.53;;;9.44;79.56
50672;BME280;46021;55.882;37.654;2023-09-19T05:43:09;99981.22;;;9.56;79.34
50672;BME280;46021;55.882;37.654;2023-09-19T05:45:36;99982.59;;;9.72;79.56
50672;BME280;46021;55.882;37.654;2023-09-19T05:48:13;99984.00;;;9.86;79.20
50672;BME280;46021;55.882;37.654;2023-09-19T05:50:42;99978.53;;;9.98;78.80
50672;BME280;46021;55.882;37.654;2023-09-19T05:53:12;99975.00;;;9.99;78.59
50672;BME280;46021;55.882;37.654;2023-09-19T05:55:40;99971.41;;;10.05;78.26
50672;BME280;46021;55.882;37.654;2023-09-19T05:58:09;99978.72;;;10.25;78.65
50672;BME280;46021;55.882;37.654;2023-09-19T06:00:39;99968.72;;;10.42;78.44
50672;BME280;46021;55.882;37.654;2023-09-19T06:03:08;99975.50;;;10.49;77.65
50672;BME280;46021;55.882;37.654;2023-09-19T06:05:35;99968.38;;;10.54;77.16
50672;BME280;46021;55.882;37.654;2023-09-19T06:08:06;99971.69;;;10.61;77.25
50672;BME280;46021;55.882;37.654;2023-09-19T06:10:35;99967.88;;;10.73;77.58
50672;BME280;46021;55.882;37.654;2023-09-19T06:13:02;99962.19;;;10.90;77.41
50672;BME280;46021;55.882;37.654;2023-09-19T06:15:33;99952.19;;;11.06;77.06
50672;BME280;46021;55.882;37.654;2023-09-19T06:18:01;99954.41;;;11.18;76.45
50672;BME280;46021;55.882;37.654;2023-09-19T06:20:30;99960.56;;;11.17;75.99
50672;BME280;46021;55.882;37.654;2023-09-19T06:22:58;99957.28;;;11.09;75.85
50672;BME280;46021;55.882;37.654;2023-09-19T06:25:27;99951.19;;;11.10;75.96
50672;BME280;46021;55.882;37.654;2023-09-19T06:27:54;99958.38;;;11.02;75.90
50672;BME280;46021;55.882;37.654;2023-09-19T06:30:22;99947.63;;;11.12;76.05
50672;BME280;46021;55.882;37.654;2023-09-19T06:32:55;99958.28;;;11.35;76.54
50672;BME280;46021;55.882;37.654;2023-09-19T06:35:23;99960.47;;;11.48;76.31
50672;BME280;46021;55.882;37.654;2023-09-19T06:37:52;99952.59;;;11.50;75.17
50672;BME280;46021;55.882;37.654;2023-09-19T06:40:19;99939.63;;;11.47;75.22
50672;BME280;46021;55.882;37.654;2023-09-19T06:42:49;99948.16;;;11.52;74.82
50672;BME280;46021;55.882;37.654;2023-09-19T06:45:17;99949.66;;;11.61;75.03
50672;BME280;46021;55.882;37.654;2023-09-19T06:47:44;99935.59;;;11.65;74.67
50672;BME280;46021;55.882;37.654;2023-09-19T06:50:16;99940.44;;;11.76;74.96
50672;BME280;46021;55.882;37.654;2023-09-19T06:52:44;99943.56;;;11.87;74.86
50672;BME280;46021;55.882;37.654;2023-09-19T06:55:12;99938.94;;;11.97;74.16
50672;BME280;46021;55.882;37.654;2023-09-19T06:57:42;99939.34;;;12.09;74.94
50672;BME280;46021;55.882;37.654;2023-09-19T07:00:10;99940.44;;;12.29;74.80
50672;BME280;46021;55.882;37.654;2023-09-19T07:02:44;99951.97;;;12.48;74.55
50672;BME280;46021;55.882;37.654;2023-09-19T07:05:11;99956.19;;;12.76;74.69
50672;BME280;46021;55.882;37.654;2023-09-19T07:07:39;99950.16;;;12.98;73.58
50672;BME280;46021;55.882;37.654;2023-09-19T07:10:07;99943.38;;;13.39;74.11
50672;BME280;46021;55.882;37.654;2023-09-19T07:12:37;99930.50;;;13.77;73.11
50672;BME280;46021;55.882;37.654;2023-09-19T07:15:04;99927.13;;;14.16;72.75
50672;BME280;46021;55.882;37.654;2023-09-19T07:17:32;99925.03;;;14.24;70.66
50672;BME280;46021;55.882;37.654;2023-09-19T07:19:59;99931.78;;;14.51;70.81
50672;BME280;46021;55.882;37.654;2023-09-19T07:22:27;99931.41;;;14.60;68.88
50672;BME280;46021;55.882;37.654;2023-09-19T07:24:56;99926.88;;;14.82;68.43
50672;BME280;46021;55.882;37.654;2023-09-19T07:27:23;99932.69;;;15.08;68.43
50672;BME280;46021;55.882;37.654;2023-09-19T07:29:50;99936.13;;;15.29;68.20
50672;BME280;46021;55.882;37.654;2023-09-19T07:32:18;99930.13;;;15.45;67.77
50672;BME280;46021;55.882;37.654;2023-09-19T07:34:45;99927.28;;;15.49;67.04
50672;BME280;46021;55.882;37.654;2023-09-19T07:37:12;99922.16;;;15.46;67.69
50672;BME280;46021;55.882;37.654;2023-09-19T07:39:41;99921.38;;;15.44;67.03
50672;BME280;46021;55.882;37.654;2023-09-19T07:42:10;99920.91;;;15.36;67.01
50672;BME280;46021;55.882;37.654;2023-09-19T07:44:43;99911.50;;;15.49;66.85
50672;BME280;46021;55.882;37.654;2023-09-19T07:47:13;99934.75;;;15.76;66.64
50672;BME280;46021;55.882;37.654;2023-09-19T07:49:40;99918.00;;;15.96;65.91
50672;BME280;46021;55.882;37.654;2023-09-19T07:52:08;99912.88;;;16.10;65.57
50672;BME280;46021;55.882;37.654;2023-09-19T07:54:34;99923.25;;;16.13;65.16
50672;BME280;46021;55.882;37.654;2023-09-19T07:57:02;99910.41;;;16.25;65.51
50672;BME280;46021;55.882;37.654;2023-09-19T07:59:31;99902.72;;;16.37;65.01
50672;BME280;46021;55.882;37.654;2023-09-19T08:01:58;99908.78;;;16.55;64.70
50672;BME280;46021;55.882;37.654;2023-09-19T08:04:26;99903.72;;;16.68;64.52
50672;BME280;46021;55.882;37.654;2023-09-19T08:06:56;99907.28;;;16.85;64.24
50672;BME280;46021;55.882;37.654;2023-09-19T08:09:26;99905.22;;;16.90;63.48
50672;BME280;46021;55.882;37.654;2023-09-19T08:11:55;99905.78;;;16.79;62.22
50672;BME280;46021;55.882;37.654;2023-09-19T08:14:22;99907.81;;;16.58;62.54
50672;BME280;46021;55.882;37.654;2023-09-19T08:16:56;99902.91;;;16.17;61.86
50672;BME280;46021;55.882;37.654;2023-09-19T08:19:24;99901.38;;;15.95;63.21
50672;BME280;46021;55.882;37.654;2023-09-19T08:21:55;99886.78;;;15.53;63.75
50672;BME280;46021;55.882;37.654;2023-09-19T08:24:24;99891.69;;;15.42;64.38
50672;BME280;46021;55.882;37.654;2023-09-19T08:26:53;99894.63;;;15.36;64.25
50672;BME280;46021;55.882;37.654;2023-09-19T08:29:21;99898.53;;;15.27;64.85
50672;BME280;46021;55.882;37.654;2023-09-19T08:31:55;99899.97;;;15.15;64.55
50672;BME280;46021;55.882;37.654;2023-09-19T08:34:23;99893.13;;;15.13;65.40
50672;BME280;46021;55.882;37.654;2023-09-19T08:36:51;99883.59;;;15.10;65.23
50672;BME280;46021;55.882;37.654;2023-09-19T08:39:22;99878.34;;;14.91;66.08
50672;BME280;46021;55.882;37.654;2023-09-19T08:41:49;99877.69;;;14.88;66.06
50672;BME280;46021;55.882;37.654;2023-09-19T08:44:16;99876.97;;;14.84;65.69
50672;BME280;46021;55.882;37.654;2023-09-19T08:46:44;99871.13;;;14.77;66.34
50672;BME280;46021;55.882;37.654;2023-09-19T08:49:16;99870.13;;;14.80;66.07
50672;BME280;46021;55.882;37.654;2023-09-19T08:51:53;99869.69;;;14.70;66.29
50672;BME280;46021;55.882;37.654;2023-09-19T08:54:24;99865.47;;;14.68;66.25
50672;BME280;46021;55.882;37.654;2023-09-19T08:56:53;99859.63;;;14.61;67.01
50672;BME280;46021;55.882;37.654;2023-09-19T08:59:22;99857.00;;;14.61;66.83
50672;BME280;46021;55.882;37.654;2023-09-19T09:01:55;99857.94;;;14.60;67.02
50672;BME280;46021;55.882;37.654;2023-09-19T09:04:24;99864.88;;;14.61;67.14
50672;BME280;46021;55.882;37.654;2023-09-19T09:06:52;99869.44;;;14.57;67.43
50672;BME280;46021;55.882;37.654;2023-09-19T09:09:20;99854.63;;;14.55;67.18
50672;BME280;46021;55.882;37.654;2023-09-19T09:11:48;99858.19;;;14.54;67.47
50672;BME280;46021;55.882;37.654;2023-09-19T09:14:19;99858.97;;;14.56;67.25
50672;BME280;46021;55.882;37.654;2023-09-19T09:16:47;99868.44;;;14.60;67.53
50672;BME280;46021;55.882;37.654;2023-09-19T09:19:15;99868.31;;;14.63;68.07
50672;BME280;46021;55.882;37.654;2023-09-19T09:21:51;99870.72;;;14.68;68.03
50672;BME280;46021;55.882;37.654;2023-09-19T09:24:28;99866.16;;;14.71;67.88
50672;BME280;46021;55.882;37.654;2023-09-19T09:26:56;99858.94;;;14.76;67.75
50672;BME280;46021;55.882;37.654;2023-09-19T09:29:40;99858.00;;;14.77;67.53
50672;BME280;46021;55.882;37.654;2023-09-19T09:32:19;99860.34;;;14.84;67.82
50672;BME280;46021;55.882;37.654;2023-09-19T09:34:48;99861.81;;;14.89;67.69
50672;BME280;46021;55.882;37.654;2023-09-19T09:37:17;99861.69;;;14.92;67.40
50672;BME280;46021;55.882;37.654;2023-09-19T09:39:50;99863.47;;;14.92;67.91
50672;BME280;46021;55.882;37.654;2023-09-19T09:42:35;99863.41;;;14.93;67.55
50672;BME280;46021;55.882;37.654;2023-09-19T09:45:16;99856.91;;;15.00;67.78
50672;BME280;46021;55.882;37.654;2023-09-19T09:47:44;99858.75;;;15.17;67.29
50672;BME280;46021;55.882;37.654;2023-09-19T09:50:27;99853.00;;;15.46;67.41
50672;BME280;46021;55.882;37.654;2023-09-19T09:53:19;99855.31;;;15.88;67.80
50672;BME280;46021;55.882;37.654;2023-09-19T09:56:04;99849.00;;;16.26;65.46
50672;BME280;46021;55.882;37.654;2023-09-19T09:58:36;99839.94;;;16.47;65.54
50672;BME280;46021;55.882;37.654;2023-09-19T10:01:06;99840.56;;;16.68;65.30
50672;BME280;46021;55.882;37.654;2023-09-19T10:03:37;99840.69;;;16.83;65.05
50672;BME280;46021;55.882;37.654;2023-09-19T10:06:08;99826.47;;;17.01;64.65
50672;BME280;46021;55.882;37.654;2023-09-19T10:09:05;99839.06;;;17.28;64.12
50672;BME280;46021;55.882;37.654;2023-09-19T10:11:42;99827.09;;;17.52;63.39
50672;BME280;46021;55.882;37.654;2023-09-19T10:14:11;99836.38;;;17.74;62.52
50672;BME280;46021;55.882;37.654;2023-09-19T10:16:43;99824.19;;;17.87;62.77
50672;BME280;46021;55.882;37.654;2023-09-19T10:19:16;99823.47;;;18.00;62.07
50672;BME280;46021;55.882;37.654;2023-09-19T10:21:48;99819.59;;;18.05;61.87
50672;BME280;46021;55.882;37.654;2023-09-19T10:24:20;99810.84;;;18.19;61.38
50672;BME280;46021;55.882;37.654;2023-09-19T10:26:51;99808.34;;;18.45;61.35
50672;BME280;46021;55.882;37.654;2023-09-19T10:29:19;99805.47;;;18.77;61.18
50672;BME280;46021;55.882;37.654;2023-09-19T10:31:48;99792.56;;;19.14;61.02
50672;BME280;46021;55.882;37.654;2023-09-19T10:34:17;99795.19;;;19.54;60.29
50672;BME280;46021;55.882;37.654;2023-09-19T10:36:45;99798.19;;;20.26;59.50
50672;BME280;46021;55.882;37.654;2023-09-19T10:39:15;99791.75;;;20.80;56.84
50672;BME280;46021;55.882;37.654;2023-09-19T10:41:50;99786.00;;;21.34;54.90
50672;BME280;46021;55.882;37.654;2023-09-19T10:44:25;99786.13;;;21.79;55.35
50672;BME280;46021;55.882;37.654;2023-09-19T10:46:52;99784.59;;;22.11;54.42
50672;BME280;46021;55.882;37.654;2023-09-19T10:49:20;99777.97;;;22.28;53.94
50672;BME280;46021;55.882;37.654;2023-09-19T10:51:51;99784.72;;;22.54;53.79
50672;BME280;46021;55.882;37.654;2023-09-19T10:54:22;99766.22;;;23.08;53.03
50672;BME280;46021;55.882;37.654;2023-09-19T10:56:53;99774.59;;;24.39;52.50
50672;BME280;46021;55.882;37.654;2023-09-19T10:59:25;99760.56;;;25.46;47.86
50672;BME280;46021;55.882;37.654;2023-09-19T11:02:15;99758.84;;;26.95;45.89
50672;BME280;46021;55.882;37.654;2023-09-19T11:04:44;99756.16;;;27.49;45.21
50672;BME280;46021;55.882;37.654;2023-09-19T11:07:14;99756.47;;;27.72;44.02
50672;BME280;46021;55.882;37.654;2023-09-19T11:09:46;99757.72;;;27.86;40.99
50672;BME280;46021;55.882;37.654;2023-09-19T11:12:49;99749.53;;;27.87;41.10
50672;BME280;46021;55.882;37.654;2023-09-19T11:18:50;99763.38;;;28.43;38.29
50672;BME280;46021;55.882;37.654;2023-09-19T11:21:52;99762.13;;;28.21;38.60
50672;BME280;46021;55.882;37.654;2023-09-19T11:24:31;99756.03;;;28.11;38.07
50672;BME280;46021;55.882;37.654;2023-09-19T11:27:15;99759.50;;;28.03;40.04
50672;BME280;46021;55.882;37.654;2023-09-19T11:29:44;99757.06;;;28.18;40.00
50672;BME280;46021;55.882;37.654;2023-09-19T11:32:12;99748.47;;;28.49;40.16
50672;BME280;46021;55.882;37.654;2023-09-19T11:34:46;99739.81;;;28.63;39.61
50672;BME280;46021;55.882;37.654;2023-09-19T11:40:25;99737.88;;;28.98;39.11
50672;BME280;46021;55.882;37.654;2023-09-19T11:42:55;99746.56;;;28.75;38.86
50672;BME280;46021;55.882;37.654;2023-09-19T11:48:28;99738.47;;;28.59;38.80
50672;BME280;46021;55.882;37.654;2023-09-19T11:50:56;99731.44;;;28.24;39.47
50672;BME280;46021;55.882;37.654;2023-09-19T11:53:31;99720.19;;;28.12;39.40
50672;BME280;46021;55.882;37.654;2023-09-19T11:56:04;99730.13;;;28.28;39.97
50672;BME280;46021;55.882;37.654;2023-09-19T11:58:38;99717.91;;;28.25;39.09
50672;BME280;46021;55.882;37.654;2023-09-19T12:01:05;99729.28;;;28.19;39.80
50672;BME280;46021;55.882;37.654;2023-09-19T12:03:42;99729.00;;;27.96;39.52
50672;BME280;46021;55.882;37.654;2023-09-19T12:06:14;99720.34;;;27.50;39.85
50672;BME280;46021;55.882;37.654;2023-09-19T12:08:42;99712.97;;;27.52;39.76
50672;BME280;46021;55.882;37.654;2023-09-19T12:11:13;99698.44;;;26.74;40.26
50672;BME280;46021;55.882;37.654;2023-09-19T12:13:44;99711.38;;;26.97;40.52
50672;BME280;46021;55.882;37.654;2023-09-19T12:16:16;99704.34;;;26.78;40.77
50672;BME280;46021;55.882;37.654;2023-09-19T12:18:48;99703.19;;;26.80;40.99
50672;BME280;46021;55.882;37.654;2023-09-19T12:21:26;99693.03;;;26.84;40.89
50672;BME280;46021;55.882;37.654;2023-09-19T12:24:04;99699.69;;;26.98;40.38
50672;BME280;46021;55.882;37.654;2023-09-19T12:26:38;99699.38;;;26.83;40.46
50672;BME280;46021;55.882;37.654;2023-09-19T12:29:12;99688.91;;;26.72;40.93
50672;BME280;46021;55.882;37.654;2023-09-19T12:31:50;99680.34;;;26.68;41.15
50672;BME280;46021;55.882;37.654;2023-09-19T12:34:20;99678.50;;;26.69;41.69
50672;BME280;46021;55.882;37.654;2023-09-19T12:36:48;99681.66;;;26.64;41.49
50672;BME280;46021;55.882;37.654;2023-09-19T12:39:24;99675.56;;;26.44;40.83
50672;BME280;46021;55.882;37.654;2023-09-19T12:41:52;99680.00;;;26.08;41.79
50672;BME280;46021;55.882;37.654;2023-09-19T12:44:21;99669.53;;;25.96;42.54
50672;BME280;46021;55.882;37.654;2023-09-19T12:46:51;99669.97;;;25.92;42.73
50672;BME280;46021;55.882;37.654;2023-09-19T12:49:20;99668.91;;;25.75;43.15
50672;BME280;46021;55.882;37.654;2023-09-19T12:51:49;99663.03;;;25.61;43.40
50672;BME280;46021;55.882;37.654;2023-09-19T12:54:18;99666.78;;;25.31;43.20
50672;BME280;46021;55.882;37.654;2023-09-19T12:56:46;99652.34;;;24.95;43.98
50672;BME280;46021;55.882;37.654;2023-09-19T12:59:14;99660.78;;;24.80;45.05
50672;BME280;46021;55.882;37.654;2023-09-19T13:01:43;99664.00;;;24.74;45.06
50672;BME280;46021;55.882;37.654;2023-09-19T13:04:16;99656.56;;;24.68;44.68
50672;BME280;46021;55.882;37.654;2023-09-19T13:06:47;99646.59;;;24.70;45.23
50672;BME280;46021;55.882;37.654;2023-09-19T13:09:15;99645.91;;;24.68;45.49
50672;BME280;46021;55.882;37.654;2023-09-19T13:11:43;99632.31;;;24.71;45.36
50672;BME280;46021;55.882;37.654;2023-09-19T13:14:18;99644.63;;;24.72;45.66
50672;BME280;46021;55.882;37.654;2023-09-19T13:17:01;99639.88;;;24.76;45.53